Time;durP1;ratioP1;P1;durP2;ratioP2;P2;SDS_P1;SDS_P2;PMS_P1;PMS_P2;Temp;Humidity;BMP_temperature;BMP_pressure;BME280_temperature;BME280_humidity;BME280_pressure;Samples;Min_cycle;Max_cycle;Signal;HPM_P1;HPM_P2
2022/04/28 00:01:39;;;;;;;5.20;1.73;;;;;;;;;;5127966;28;20122;-47
2022/04/28 00:04:04;;;;;;;6.68;2.40;;;;;;;;;;5121882;28;20099;-45
2022/04/28 00:06:29;;;;;;;2.85;1.60;;;;;;;;;;5129058;28;20035;-47
2022/04/28 00:08:55;;;;;;;2.47;2.17;;;;;;;;;;5122059;28;20146;-44
2022/04/28 00:11:20;;;;;;;2.90;2.13;;;;;;;;;;5122102;28;20047;-45
2022/04/28 00:13:45;;;;;;;2.38;1.80;;;;;;;;;;5124933;28;20051;-49
2022/04/28 00:16:11;;;;;;;3.83;3.28;;;;;;;;;;5122086;28;20078;-47
2022/04/28 00:18:36;;;;;;;6.40;4.38;;;;;;;;;;5128760;28;20043;-48
2022/04/28 00:21:01;;;;;;;3.67;2.92;;;;;;;;;;5128195;28;20035;-44
2022/04/28 00:23:26;;;;;;;3.78;2.70;;;;;;;;;;5128148;28;20503;-46
2022/04/28 00:25:52;;;;;;;4.70;2.10;;;;;;;;;;5125771;28;20533;-50
2022/04/28 00:28:20;;;;;;;6.78;2.47;;;;;;;;;;5128104;28;20414;-45
2022/04/28 00:30:45;;;;;;;9.38;2.60;;;;;;;;;;5127859;28;20043;-47
2022/04/28 00:33:11;;;;;;;3.80;3.00;;;;;;;;;;5125411;28;20046;-48
2022/04/28 00:35:38;;;;;;;5.55;2.35;;;;;;;;;;5126208;28;20039;-45
2022/04/28 00:38:03;;;;;;;7.30;2.92;;;;;;;;;;5128177;28;20471;-47
2022/04/28 00:40:29;;;;;;;6.13;2.42;;;;;;;;;;5128586;28;20031;-47
2022/04/28 00:43:18;;;;;;;2.53;1.80;;;;;;;;;;5128344;28;20563;-45
2022/04/28 00:45:39;;;;;;;2.53;2.15;;;;;;;;;;5119866;28;20087;-48
2022/04/28 00:50:49;;;;;;;1.92;1.15;;;;;;;;;;5126933;28;20065;-44
2022/04/28 00:53:15;;;;;;;2.90;1.92;;;;;;;;;;5128587;28;20848;-45
2022/04/28 00:55:41;;;;;;;6.72;2.75;;;;;;;;;;5128346;28;20075;-51
2022/04/28 00:58:06;;;;;;;3.53;2.83;;;;;;;;;;5122313;28;20130;-46
2022/04/28 01:00:32;;;;;;;7.55;2.60;;;;;;;;;;5128357;28;20123;-43
2022/04/28 01:02:58;;;;;;;2.55;1.60;;;;;;;;;;5128206;28;20035;-48
2022/04/28 01:05:23;;;;;;;5.60;3.83;;;;;;;;;;5128420;28;20121;-46
2022/04/28 01:07:48;;;;;;;7.45;3.10;;;;;;;;;;5121056;28;20045;-45
2022/04/28 01:10:14;;;;;;;2.75;2.05;;;;;;;;;;5127926;28;20719;-44
2022/04/28 01:12:43;;;;;;;3.55;2.28;;;;;;;;;;5123670;28;20475;-49
2022/04/28 01:15:09;;;;;;;3.67;2.47;;;;;;;;;;5118170;28;20051;-44
2022/04/28 01:17:34;;;;;;;3.03;1.95;;;;;;;;;;5124928;28;20042;-44
2022/04/28 01:19:59;;;;;;;9.77;2.20;;;;;;;;;;5127355;28;20035;-44
2022/04/28 01:22:25;;;;;;;2.95;2.10;;;;;;;;;;5127686;28;20399;-47
2022/04/28 01:24:51;;;;;;;5.88;3.83;;;;;;;;;;5127689;28;20134;-47
2022/04/28 01:27:16;;;;;;;5.75;1.95;;;;;;;;;;5127541;28;20151;-43
2022/04/28 01:29:42;;;;;;;1.98;1.55;;;;;;;;;;5125275;28;20042;-49
2022/04/28 01:32:08;;;;;;;9.10;3.08;;;;;;;;;;5127729;28;20475;-45
2022/04/28 01:34:33;;;;;;;5.28;1.90;;;;;;;;;;5128112;28;20133;-43
2022/04/28 01:37:00;;;;;;;3.47;2.17;;;;;;;;;;5127980;28;20314;-45
2022/04/28 01:39:25;;;;;;;2.38;1.80;;;;;;;;;;5117875;28;20070;-48
2022/04/28 01:41:50;;;;;;;2.95;1.55;;;;;;;;;;5126721;28;20062;-48
2022/04/28 01:44:16;;;;;;;1.88;1.02;;;;;;;;;;5126555;28;20055;-48
2022/04/28 01:46:41;;;;;;;2.63;1.50;;;;;;;;;;5126822;28;20110;-47
2022/04/28 01:49:07;;;;;;;6.10;1.92;;;;;;;;;;5126303;28;20043;-45
2022/04/28 01:57:00;;;;;;;1.48;0.98;;;;;;;;;;5127622;28;20092;-46
2022/04/28 01:59:25;;;;;;;4.00;1.00;;;;;;;;;;5127301;27;20138;-46
2022/04/28 02:01:51;;;;;;;4.82;1.52;;;;;;;;;;5125775;28;20421;-46
2022/04/28 02:04:16;;;;;;;2.53;1.73;;;;;;;;;;5126933;28;20510;-47
2022/04/28 02:06:43;;;;;;;3.75;1.98;;;;;;;;;;5125174;28;20039;-45
2022/04/28 02:09:08;;;;;;;4.03;3.13;;;;;;;;;;5122750;28;20035;-45
2022/04/28 02:11:33;;;;;;;4.35;3.28;;;;;;;;;;5127520;28;20144;-46
2022/04/28 02:13:58;;;;;;;3.50;3.03;;;;;;;;;;5126965;28;20512;-44
2022/04/28 02:16:24;;;;;;;4.70;3.03;;;;;;;;;;5126950;28;20422;-46
2022/04/28 02:18:49;;;;;;;2.67;2.45;;;;;;;;;;5126743;28;20110;-46
2022/04/28 02:21:14;;;;;;;3.85;2.17;;;;;;;;;;5115190;28;20036;-49
2022/04/28 02:23:39;;;;;;;2.35;2.08;;;;;;;;;;5126894;28;20055;-48
2022/04/28 02:26:05;;;;;;;3.13;2.25;;;;;;;;;;5122922;28;20589;-46
2022/04/28 02:28:30;;;;;;;2.67;1.70;;;;;;;;;;5125930;28;20054;-46
2022/04/28 02:30:55;;;;;;;3.22;1.80;;;;;;;;;;5126236;28;20195;-44
2022/04/28 02:33:21;;;;;;;1.95;1.38;;;;;;;;;;5126539;28;20513;-44
2022/04/28 02:35:46;;;;;;;2.42;1.52;;;;;;;;;;5123958;28;20397;-47
2022/04/28 02:38:12;;;;;;;2.08;1.02;;;;;;;;;;5126185;28;20577;-46
2022/04/28 02:40:38;;;;;;;2.78;1.25;;;;;;;;;;5125680;28;20042;-46
2022/04/28 02:43:03;;;;;;;7.97;1.88;;;;;;;;;;5123746;28;20043;-44
2022/04/28 02:45:29;;;;;;;5.70;1.70;;;;;;;;;;5126545;28;20051;-49
2022/04/28 02:47:54;;;;;;;2.63;1.15;;;;;;;;;;5126711;28;20113;-46
2022/04/28 02:50:21;;;;;;;11.35;2.78;;;;;;;;;;5126139;28;20043;-46
2022/04/28 02:52:47;;;;;;;9.57;3.28;;;;;;;;;;5125206;28;20059;-45
2022/04/28 02:55:12;;;;;;;5.85;2.83;;;;;;;;;;5126125;28;20047;-43
2022/04/28 02:57:37;;;;;;;4.88;3.13;;;;;;;;;;5125797;28;20130;-44
2022/04/28 03:00:04;;;;;;;5.38;3.42;;;;;;;;;;5124320;28;20039;-46
2022/04/28 03:02:30;;;;;;;4.68;2.50;;;;;;;;;;5126144;28;20050;-47
2022/04/28 03:04:56;;;;;;;4.15;2.53;;;;;;;;;;5125882;28;20146;-46
2022/04/28 03:12:49;;;;;;;6.45;2.80;;;;;;;;;;5116058;27;20073;-45
2022/04/28 03:15:14;;;;;;;5.93;3.15;;;;;;;;;;5126038;28;20417;-48
2022/04/28 03:17:39;;;;;;;5.03;3.45;;;;;;;;;;5123047;28;20034;-46
2022/04/28 03:20:05;;;;;;;5.20;3.13;;;;;;;;;;5125329;28;20508;-43
2022/04/28 03:22:30;;;;;;;4.82;3.03;;;;;;;;;;5125224;28;20095;-46
2022/04/28 03:24:56;;;;;;;3.25;1.90;;;;;;;;;;5124466;28;20046;-46
2022/04/28 03:27:21;;;;;;;3.13;2.45;;;;;;;;;;5124261;28;20050;-47
2022/04/28 03:29:47;;;;;;;2.88;1.80;;;;;;;;;;5125454;28;20065;-45
2022/04/28 03:32:12;;;;;;;6.70;2.90;;;;;;;;;;5125269;28;20509;-46
2022/04/28 03:34:37;;;;;;;4.10;2.53;;;;;;;;;;5125126;28;20095;-46
2022/04/28 03:37:03;;;;;;;2.47;1.90;;;;;;;;;;5125735;28;20050;-45
2022/04/28 03:39:29;;;;;;;2.45;1.75;;;;;;;;;;5125313;28;20047;-47
2022/04/28 03:41:54;;;;;;;12.93;2.33;;;;;;;;;;5126252;28;20224;-43
2022/04/28 03:44:20;;;;;;;4.47;2.30;;;;;;;;;;5123639;28;20681;-48
2022/04/28 03:46:45;;;;;;;3.53;2.38;;;;;;;;;;5125619;28;20196;-43
2022/04/28 03:49:10;;;;;;;2.78;2.05;;;;;;;;;;5125366;28;20070;-48
2022/04/28 03:51:36;;;;;;;2.78;1.85;;;;;;;;;;5125769;28;20055;-47
2022/04/28 03:54:01;;;;;;;1.85;1.52;;;;;;;;;;5125472;28;20070;-46
2022/04/28 03:56:30;;;;;;;3.22;1.65;;;;;;;;;;5124610;28;20042;-46
2022/04/28 03:58:55;;;;;;;3.30;2.85;;;;;;;;;;5123521;28;20063;-46
2022/04/28 04:01:20;;;;;;;5.13;2.95;;;;;;;;;;5124596;28;20079;-47
2022/04/28 04:03:45;;;;;;;3.40;2.08;;;;;;;;;;5125481;28;20111;-44
2022/04/28 04:06:11;;;;;;;3.80;2.10;;;;;;;;;;5125211;28;20058;-44
2022/04/28 04:08:36;;;;;;;4.32;2.97;;;;;;;;;;5123185;28;20051;-44
2022/04/28 04:11:01;;;;;;;4.72;2.58;;;;;;;;;;5122116;28;20055;-44
2022/04/28 04:13:27;;;;;;;4.82;3.03;;;;;;;;;;5124037;28;20455;-46
2022/04/28 04:15:52;;;;;;;4.47;3.10;;;;;;;;;;5125015;28;20519;-47
2022/04/28 04:18:18;;;;;;;5.72;3.28;;;;;;;;;;5125338;28;20046;-45
2022/04/28 04:20:43;;;;;;;5.00;3.38;;;;;;;;;;5123397;28;20076;-51
2022/04/28 04:23:08;;;;;;;10.35;2.50;;;;;;;;;;5125759;27;20035;-47
2022/04/28 04:25:34;;;;;;;4.80;2.38;;;;;;;;;;5126333;28;20049;-47
2022/04/28 04:27:59;;;;;;;6.53;3.08;;;;;;;;;;5128179;28;20133;-49
2022/04/28 04:33:08;;;;;;;3.72;2.28;;;;;;;;;;5128765;28;20760;-48
2022/04/28 04:35:33;;;;;;;2.60;2.08;;;;;;;;;;5125187;28;20051;-46
2022/04/28 04:37:58;;;;;;;8.20;2.50;;;;;;;;;;5128614;28;20039;-45
2022/04/28 04:40:24;;;;;;;8.40;3.05;;;;;;;;;;5127594;28;20524;-47
2022/04/28 04:42:49;;;;;;;3.22;2.10;;;;;;;;;;5128379;28;20054;-48
2022/04/28 04:45:15;;;;;;;4.57;3.00;;;;;;;;;;5128384;28;20051;-46
2022/04/28 04:47:40;;;;;;;5.72;3.45;;;;;;;;;;5128247;28;20057;-44
2022/04/28 04:50:07;;;;;;;12.13;9.20;;;;;;;;;;5128521;28;20035;-48
2022/04/28 04:52:33;;;;;;;15.32;8.73;;;;;;;;;;5127805;28;20039;-44
2022/04/28 04:54:58;;;;;;;4.20;3.17;;;;;;;;;;5127644;28;20158;-47
2022/04/28 04:57:24;;;;;;;5.53;3.80;;;;;;;;;;5127827;28;20046;-43
2022/04/28 04:59:49;;;;;;;7.18;5.25;;;;;;;;;;5128169;28;20043;-46
2022/04/28 05:02:14;;;;;;;4.00;3.17;;;;;;;;;;5128326;28;20050;-46
2022/04/28 05:04:40;;;;;;;4.22;2.78;;;;;;;;;;5128207;28;20043;-47
2022/04/28 05:07:06;;;;;;;4.10;2.55;;;;;;;;;;5127505;28;20516;-45
2022/04/28 05:09:31;;;;;;;4.82;2.45;;;;;;;;;;5128330;28;20115;-47
2022/04/28 05:11:56;;;;;;;8.15;3.42;;;;;;;;;;5128380;28;20119;-49
2022/04/28 05:14:22;;;;;;;4.70;3.55;;;;;;;;;;5127520;28;20124;-43
2022/04/28 05:16:47;;;;;;;22.48;3.47;;;;;;;;;;5125544;28;20043;-48
2022/04/28 05:19:12;;;;;;;3.88;2.78;;;;;;;;;;5128003;28;20523;-45
2022/04/28 05:21:38;;;;;;;5.60;3.10;;;;;;;;;;5128554;28;20147;-48
2022/04/28 05:24:03;;;;;;;5.50;3.33;;;;;;;;;;5124978;28;20075;-49
2022/04/28 05:26:29;;;;;;;6.90;3.92;;;;;;;;;;5125539;28;20034;-49
2022/04/28 05:28:54;;;;;;;5.50;4.05;;;;;;;;;;5124630;28;20050;-47
2022/04/28 05:31:19;;;;;;;5.85;2.95;;;;;;;;;;5126924;28;20059;-46
2022/04/28 05:33:45;;;;;;;15.63;4.32;;;;;;;;;;5127594;28;20043;-52
2022/04/28 05:36:11;;;;;;;30.25;3.63;;;;;;;;;;5123516;28;20538;-52
2022/04/28 05:38:37;;;;;;;6.50;3.85;;;;;;;;;;5126172;28;20043;-49
2022/04/28 05:41:03;;;;;;;9.55;4.30;;;;;;;;;;5127515;28;20489;-50
2022/04/28 05:46:13;;;;;;;3.17;1.83;;;;;;;;;;5126464;28;20455;-52
2022/04/28 05:48:38;;;;;;;4.28;2.33;;;;;;;;;;5126567;28;20126;-47
2022/04/28 05:51:03;;;;;;;9.18;1.85;;;;;;;;;;5127068;28;20092;-50
2022/04/28 05:53:29;;;;;;;9.50;3.95;;;;;;;;;;5124804;28;20043;-52
2022/04/28 05:55:54;;;;;;;8.00;3.42;;;;;;;;;;5121021;28;20054;-49
2022/04/28 05:58:19;;;;;;;4.47;2.75;;;;;;;;;;5104242;28;20118;-46
2022/04/28 06:00:44;;;;;;;6.22;1.98;;;;;;;;;;5124285;28;20830;-50
2022/04/28 06:03:10;;;;;;;5.30;2.78;;;;;;;;;;5121726;28;20051;-47
2022/04/28 06:05:35;;;;;;;8.88;4.03;;;;;;;;;;5123489;28;20086;-47
2022/04/28 06:08:00;;;;;;;10.35;5.60;;;;;;;;;;5121493;28;20123;-45
2022/04/28 06:10:26;;;;;;;9.10;6.85;;;;;;;;;;5123845;28;20058;-49
2022/04/28 06:12:51;;;;;;;12.00;6.07;;;;;;;;;;5123160;28;20609;-59
2022/04/28 06:15:16;;;;;;;31.08;14.63;;;;;;;;;;5123342;28;20043;-62
2022/04/28 06:17:42;;;;;;;27.70;19.50;;;;;;;;;;5123605;28;20043;-62
2022/04/28 06:20:07;;;;;;;18.75;12.73;;;;;;;;;;5124674;28;20047;-62
2022/04/28 06:22:33;;;;;;;66.57;14.60;;;;;;;;;;5124438;28;20051;-62
2022/04/28 06:25:01;;;;;;;25.00;13.00;;;;;;;;;;5123349;28;20627;-61
2022/04/28 06:27:28;;;;;;;16.67;13.13;;;;;;;;;;5123519;28;20050;-61
2022/04/28 06:29:54;;;;;;;15.93;11.95;;;;;;;;;;5122461;28;20047;-61
2022/04/28 06:32:21;;;;;;;31.77;27.63;;;;;;;;;;5123873;28;20054;-60
2022/04/28 06:34:47;;;;;;;15.45;10.20;;;;;;;;;;5123712;28;20170;-60
2022/04/28 06:37:14;;;;;;;16.90;6.53;;;;;;;;;;5123529;28;20460;-61
2022/04/28 06:39:39;;;;;;;11.10;5.00;;;;;;;;;;5123658;28;20042;-61
2022/04/28 06:42:05;;;;;;;10.30;5.70;;;;;;;;;;5124298;28;20091;-61
2022/04/28 06:44:30;;;;;;;8.05;5.07;;;;;;;;;;5122563;28;20085;-60
2022/04/28 06:46:55;;;;;;;16.98;6.90;;;;;;;;;;5122291;27;20133;-60
2022/04/28 06:49:21;;;;;;;20.00;8.73;;;;;;;;;;5123223;28;20517;-60
2022/04/28 06:51:46;;;;;;;21.92;12.30;;;;;;;;;;5123674;28;20134;-61
2022/04/28 06:54:12;;;;;;;17.30;12.68;;;;;;;;;;5122471;28;20045;-61
2022/04/28 06:56:38;;;;;;;17.50;7.97;;;;;;;;;;5102490;28;20414;-62
2022/04/28 06:59:04;;;;;;;14.48;9.65;;;;;;;;;;5122995;28;20543;-61
2022/04/28 07:01:30;;;;;;;18.73;8.50;;;;;;;;;;5122470;28;20088;-61
2022/04/28 07:03:55;;;;;;;7.82;6.50;;;;;;;;;;5122476;28;20042;-61
2022/04/28 07:06:20;;;;;;;11.35;7.43;;;;;;;;;;5123006;28;20043;-62
2022/04/28 07:08:45;;;;;;;15.60;6.45;;;;;;;;;;5121596;28;20047;-62
2022/04/28 07:11:11;;;;;;;12.57;8.50;;;;;;;;;;5123282;28;20055;-62
2022/04/28 07:13:37;;;;;;;14.40;11.30;;;;;;;;;;5121524;28;20502;-61
2022/04/28 07:16:02;;;;;;;44.72;34.72;;;;;;;;;;5120914;28;20112;-63
2022/04/28 07:18:28;;;;;;;60.50;36.25;;;;;;;;;;5122471;28;20066;-61
2022/04/28 07:20:53;;;;;;;34.47;27.63;;;;;;;;;;5121997;28;20046;-62
2022/04/28 07:23:18;;;;;;;30.77;23.17;;;;;;;;;;5116523;28;20063;-62
2022/04/28 07:25:43;;;;;;;38.55;27.30;;;;;;;;;;5123295;28;20035;-63
2022/04/28 07:28:09;;;;;;;49.35;37.08;;;;;;;;;;5103429;28;20047;-62
2022/04/28 07:30:34;;;;;;;49.58;34.83;;;;;;;;;;5122773;28;20553;-61
2022/04/28 07:32:59;;;;;;;48.08;32.50;;;;;;;;;;5122578;28;20062;-62
2022/04/28 07:35:25;;;;;;;38.28;25.60;;;;;;;;;;5122532;28;20096;-62
2022/04/28 07:37:51;;;;;;;31.25;21.83;;;;;;;;;;5122759;28;20151;-61
2022/04/28 07:40:17;;;;;;;45.05;22.00;;;;;;;;;;5119264;28;20274;-60
2022/04/28 07:42:42;;;;;;;29.50;20.08;;;;;;;;;;5123830;28;20569;-60
2022/04/28 07:45:07;;;;;;;26.77;17.33;;;;;;;;;;5121889;28;20120;-60
2022/04/28 07:47:33;;;;;;;25.10;13.98;;;;;;;;;;5122501;28;20727;-60
2022/04/28 07:49:58;;;;;;;11.57;8.35;;;;;;;;;;5122665;28;20182;-60
2022/04/28 07:52:23;;;;;;;6.47;5.20;;;;;;;;;;5120746;28;20854;-60
2022/04/28 07:54:49;;;;;;;6.55;3.20;;;;;;;;;;5102730;28;20090;-60
2022/04/28 07:57:15;;;;;;;13.10;7.03;;;;;;;;;;5122718;27;20058;-59
2022/04/28 07:59:41;;;;;;;14.93;7.95;;;;;;;;;;5125635;28;20057;-60
2022/04/28 08:02:08;;;;;;;10.63;9.05;;;;;;;;;;5126362;28;20524;-60
2022/04/28 08:04:33;;;;;;;20.50;12.55;;;;;;;;;;5127000;28;20055;-60
2022/04/28 08:06:59;;;;;;;21.13;13.48;;;;;;;;;;5126209;28;20115;-60
2022/04/28 08:09:24;;;;;;;16.27;11.20;;;;;;;;;;5125439;28;20058;-60
2022/04/28 08:11:50;;;;;;;12.70;9.38;;;;;;;;;;5125594;28;20077;-60
2022/04/28 08:14:15;;;;;;;14.25;8.23;;;;;;;;;;5126831;28;20047;-60
2022/04/28 08:16:41;;;;;;;32.33;11.27;;;;;;;;;;5126157;28;20047;-61
2022/04/28 08:19:06;;;;;;;19.40;13.57;;;;;;;;;;5126361;28;20058;-60
2022/04/28 08:21:31;;;;;;;17.02;13.05;;;;;;;;;;5125616;28;20088;-60
2022/04/28 08:23:57;;;;;;;12.60;8.07;;;;;;;;;;5126335;28;20150;-65
2022/04/28 08:26:22;;;;;;;16.08;14.50;;;;;;;;;;5124822;28;20444;-62
2022/04/28 08:28:48;;;;;;;11.32;7.80;;;;;;;;;;5124115;28;20042;-61
2022/04/28 08:31:14;;;;;;;10.52;6.07;;;;;;;;;;5126275;28;20496;-60
2022/04/28 08:33:39;;;;;;;9.50;7.40;;;;;;;;;;5125967;28;20542;-60
2022/04/28 08:36:04;;;;;;;9.73;6.20;;;;;;;;;;5126439;28;20058;-63
2022/04/28 08:38:31;;;;;;;6.28;3.85;;;;;;;;;;5125426;28;20346;-62
2022/04/28 08:41:01;;;;;;;18.02;5.85;;;;;;;;;;5125071;28;20135;-61
2022/04/28 08:43:28;;;;;;;8.87;4.73;;;;;;;;;;5121721;28;20180;-62
2022/04/28 08:48:43;;;;;;;6.57;4.45;;;;;;;;;;5109194;28;20093;-62
2022/04/28 08:51:09;;;;;;;4.32;2.88;;;;;;;;;;5117495;28;20043;-61
2022/04/28 08:53:35;;;;;;;4.20;2.15;;;;;;;;;;5121332;28;20058;-59
2022/04/28 08:56:00;;;;;;;10.52;3.80;;;;;;;;;;5116641;28;20048;-60
2022/04/28 08:58:26;;;;;;;11.60;3.50;;;;;;;;;;5124351;28;20066;-59
2022/04/28 09:00:52;;;;;;;5.68;4.13;;;;;;;;;;5125916;28;20629;-60
2022/04/28 09:03:17;;;;;;;5.18;2.65;;;;;;;;;;5125121;28;20040;-59
2022/04/28 09:05:43;;;;;;;6.28;3.13;;;;;;;;;;5125737;28;20096;-59
2022/04/28 09:08:08;;;;;;;4.95;3.53;;;;;;;;;;5125109;28;20489;-60
2022/04/28 09:10:34;;;;;;;8.60;3.38;;;;;;;;;;5125401;27;20054;-59
2022/04/28 09:14:09;;;;;;;5.45;3.80;;;;;;;;;;5125745;27;20043;-59
2022/04/28 09:15:49;;;;;;;6.50;4.55;;;;;;;;;;5125233;27;20051;-60
2022/04/28 09:18:15;;;;;;;4.18;2.58;;;;;;;;;;5124010;28;20051;-60
2022/04/28 09:20:41;;;;;;;6.95;3.80;;;;;;;;;;5125198;28;20043;-60
2022/04/28 09:23:07;;;;;;;5.97;4.28;;;;;;;;;;5126083;28;20050;-59
2022/04/28 09:25:33;;;;;;;4.97;3.25;;;;;;;;;;5121076;28;20078;-60
2022/04/28 09:28:00;;;;;;;6.32;3.85;;;;;;;;;;5121857;28;20778;-60
2022/04/28 09:30:26;;;;;;;6.57;4.07;;;;;;;;;;5123454;28;20059;-60
2022/04/28 09:32:51;;;;;;;4.35;2.40;;;;;;;;;;5119486;28;20046;-60
2022/04/28 09:35:17;;;;;;;10.80;4.00;;;;;;;;;;5123441;28;20039;-60
2022/04/28 09:37:43;;;;;;;7.28;3.63;;;;;;;;;;5121005;28;20073;-60
2022/04/28 09:42:52;;;;;;;4.80;3.35;;;;;;;;;;5122929;28;20578;-59
2022/04/28 09:45:20;;;;;;;8.20;4.28;;;;;;;;;;5124588;28;20510;-60
2022/04/28 09:47:45;;;;;;;11.50;3.92;;;;;;;;;;5121171;28;20128;-59
2022/04/28 09:50:15;;;;;;;6.80;2.45;;;;;;;;;;5123382;28;20072;-60
2022/04/28 09:52:42;;;;;;;3.60;2.30;;;;;;;;;;5123498;28;20039;-63
2022/04/28 09:55:08;;;;;;;3.72;2.63;;;;;;;;;;5123135;28;20047;-63
2022/04/28 09:57:33;;;;;;;5.25;1.83;;;;;;;;;;5122792;28;20047;-63
2022/04/28 09:59:59;;;;;;;5.10;1.95;;;;;;;;;;5123097;28;20177;-63
2022/04/28 10:02:25;;;;;;;4.93;1.38;;;;;;;;;;5104229;28;20105;-63
2022/04/28 10:04:51;;;;;;;7.35;3.83;;;;;;;;;;5124540;28;20047;-58
2022/04/28 10:07:17;;;;;;;5.07;3.22;;;;;;;;;;5121249;28;20058;-59
2022/04/28 10:09:45;;;;;;;6.68;3.40;;;;;;;;;;5122093;28;20305;-60
2022/04/28 10:12:12;;;;;;;10.38;2.85;;;;;;;;;;5121045;28;20124;-59
2022/04/28 10:14:39;;;;;;;14.20;3.30;;;;;;;;;;5123565;28;20058;-58
2022/04/28 10:17:05;;;;;;;2.50;2.05;;;;;;;;;;5121641;28;20031;-58
2022/04/28 10:19:35;;;;;;;6.57;2.40;;;;;;;;;;5096582;28;20044;-58
2022/04/28 10:22:08;;;;;;;6.68;3.60;;;;;;;;;;5120597;27;20573;-58
2022/04/28 10:32:58;;;;;;;8.07;2.92;;;;;;;;;;5122650;28;20065;-59
2022/04/28 10:35:38;;;;;;;7.15;3.17;;;;;;;;;;5120507;28;20494;-59
2022/04/28 10:38:21;;;;;;;2.95;2.28;;;;;;;;;;5123429;28;20035;-57
2022/04/28 10:40:56;;;;;;;5.22;2.38;;;;;;;;;;5121351;28;20051;-59
2022/04/28 10:43:26;;;;;;;4.90;2.75;;;;;;;;;;5121745;28;20042;-58
2022/04/28 10:45:54;;;;;;;6.18;4.18;;;;;;;;;;5122368;28;20043;-59
2022/04/28 10:48:28;;;;;;;10.25;4.38;;;;;;;;;;5122113;28;20047;-59
2022/04/28 10:51:12;;;;;;;12.43;3.40;;;;;;;;;;5121458;28;20035;-59
2022/04/28 10:53:58;;;;;;;17.70;6.38;;;;;;;;;;5122061;28;20794;-60
2022/04/28 10:56:24;;;;;;;8.70;4.38;;;;;;;;;;5118191;28;20086;-59
2022/04/28 10:58:50;;;;;;;7.57;5.57;;;;;;;;;;5115175;28;20198;-60
2022/04/28 11:01:45;;;;;;;9.52;3.92;;;;;;;;;;5121395;28;20043;-59
2022/04/28 11:04:12;;;;;;;13.07;4.72;;;;;;;;;;5099234;28;20111;-59
2022/04/28 11:06:41;;;;;;;7.97;3.83;;;;;;;;;;5120856;28;20130;-59
2022/04/28 11:09:08;;;;;;;8.40;4.68;;;;;;;;;;5120899;28;20068;-58
2022/04/28 11:11:43;;;;;;;9.95;3.63;;;;;;;;;;5120753;28;20358;-60
2022/04/28 11:14:08;;;;;;;15.70;3.78;;;;;;;;;;5117388;28;20682;-60
2022/04/28 11:16:34;;;;;;;7.88;3.55;;;;;;;;;;5121849;28;20046;-62
2022/04/28 11:18:59;;;;;;;14.50;3.40;;;;;;;;;;5121587;28;20173;-60
2022/04/28 11:21:25;;;;;;;17.10;3.72;;;;;;;;;;5119648;28;20537;-58
2022/04/28 11:23:51;;;;;;;9.32;5.00;;;;;;;;;;5101473;28;20035;-59
2022/04/28 11:26:17;;;;;;;9.18;3.38;;;;;;;;;;5123106;28;20511;-60
2022/04/28 11:28:43;;;;;;;11.40;4.43;;;;;;;;;;5122790;28;20047;-60
2022/04/28 11:31:10;;;;;;;7.97;3.78;;;;;;;;;;5121704;28;20460;-59
2022/04/28 11:33:38;;;;;;;9.43;4.82;;;;;;;;;;5125246;27;20062;-63
2022/04/28 11:36:13;;;;;;;14.95;6.07;;;;;;;;;;5124118;28;20049;-60
2022/04/28 11:38:38;;;;;;;18.20;4.50;;;;;;;;;;5122917;28;20089;-60
2022/04/28 11:41:04;;;;;;;5.05;3.17;;;;;;;;;;5123846;28;20502;-61
2022/04/28 11:43:34;;;;;;;15.20;4.90;;;;;;;;;;5124437;28;20057;-57
2022/04/28 11:45:59;;;;;;;9.87;3.73;;;;;;;;;;5125031;28;20981;-58
2022/04/28 11:48:29;;;;;;;6.65;4.10;;;;;;;;;;5126521;28;20277;-59
2022/04/28 11:51:00;;;;;;;5.95;3.03;;;;;;;;;;5125509;28;20043;-58
2022/04/28 11:53:25;;;;;;;;;;;;;;;;;;5125663;28;20047;-59
2022/04/28 11:55:50;;;;;;;7.75;4.07;;;;;;;;;;5122796;28;19926;-58
2022/04/28 11:58:16;;;;;;;8.07;4.85;;;;;;;;;;5125652;28;20126;-57
2022/04/28 12:00:42;;;;;;;22.45;4.65;;;;;;;;;;5126343;28;20189;-58
2022/04/28 12:03:08;;;;;;;4.50;3.33;;;;;;;;;;5125564;28;20103;-58
2022/04/28 12:05:34;;;;;;;7.30;3.90;;;;;;;;;;5124350;28;20095;-58
2022/04/28 12:08:00;;;;;;;7.72;4.10;;;;;;;;;;5125504;28;20194;-58
2022/04/28 12:15:57;;;;;;;8.13;4.13;;;;;;;;;;5124092;28;20057;-55
2022/04/28 12:21:15;;;;;;;10.05;3.63;;;;;;;;;;5124774;28;20046;-59
2022/04/28 12:23:41;;;;;;;9.57;4.53;;;;;;;;;;5123808;28;20039;-58
2022/04/28 12:26:07;;;;;;;7.53;3.13;;;;;;;;;;5119612;28;20054;-59
2022/04/28 12:28:33;;;;;;;5.90;3.38;;;;;;;;;;5123029;28;20043;-58
2022/04/28 12:30:59;;;;;;;10.80;4.32;;;;;;;;;;5124788;28;20074;-58
2022/04/28 12:33:33;;;;;;;19.40;4.78;;;;;;;;;;5124544;28;20135;-58
2022/04/28 12:36:01;;;;;;;8.25;4.63;;;;;;;;;;5124805;27;20123;-58
2022/04/28 12:38:27;;;;;;;9.18;4.40;;;;;;;;;;5124469;27;20043;-58
2022/04/28 12:40:53;;;;;;;12.20;4.75;;;;;;;;;;5124090;28;20038;-58
2022/04/28 12:43:37;;;;;;;5.45;3.92;;;;;;;;;;5123624;28;20066;-58
2022/04/28 12:46:03;;;;;;;6.35;3.47;;;;;;;;;;5123090;28;20073;-57
2022/04/28 12:48:32;;;;;;;10.73;4.47;;;;;;;;;;5123877;28;20887;-57
2022/04/28 12:51:09;;;;;;;8.38;5.53;;;;;;;;;;5116324;28;20081;-57
2022/04/28 12:53:35;;;;;;;4.93;3.03;;;;;;;;;;5124724;28;20047;-57
2022/04/28 12:56:07;;;;;;;13.50;4.35;;;;;;;;;;5123129;28;20051;-58
2022/04/28 12:58:46;;;;;;;10.18;5.25;;;;;;;;;;5124819;28;20107;-60
2022/04/28 13:01:12;;;;;;;8.98;4.00;;;;;;;;;;5122489;28;20039;-58
2022/04/28 13:03:39;;;;;;;6.18;4.10;;;;;;;;;;5124577;28;20075;-57
2022/04/28 13:06:04;;;;;;;6.68;3.17;;;;;;;;;;5122502;28;20119;-57
2022/04/28 13:08:30;;;;;;;12.68;2.17;;;;;;;;;;5122270;28;20063;-58
2022/04/28 13:10:56;;;;;;;8.15;2.78;;;;;;;;;;5124089;28;20468;-58
2022/04/28 13:13:21;;;;;;;9.88;5.32;;;;;;;;;;5123987;28;20039;-57
2022/04/28 13:15:46;;;;;;;13.48;3.47;;;;;;;;;;5123325;28;20051;-58
2022/04/28 13:18:11;;;;;;;7.40;2.78;;;;;;;;;;5124010;28;20035;-58
2022/04/28 13:20:37;;;;;;;4.07;3.00;;;;;;;;;;5125020;28;20537;-45
2022/04/28 13:23:02;;;;;;;5.50;3.35;;;;;;;;;;5123857;28;20042;-57
2022/04/28 13:25:31;;;;;;;13.05;4.90;;;;;;;;;;5123103;28;20051;-58
2022/04/28 13:27:56;;;;;;;8.75;4.07;;;;;;;;;;5123823;28;20749;-58
2022/04/28 13:30:22;;;;;;;7.95;4.63;;;;;;;;;;5123313;28;20043;-60
2022/04/28 13:32:47;;;;;;;11.18;4.20;;;;;;;;;;5123452;28;20051;-58
2022/04/28 13:35:12;;;;;;;7.95;3.72;;;;;;;;;;5122069;28;20107;-59
2022/04/28 13:37:38;;;;;;;9.63;4.35;;;;;;;;;;5123163;28;20054;-61
2022/04/28 13:40:03;;;;;;;5.85;3.67;;;;;;;;;;5123415;28;20085;-57
2022/04/28 13:42:29;;;;;;;9.30;3.40;;;;;;;;;;5122210;28;20419;-57
2022/04/28 13:44:54;;;;;;;10.98;8.40;;;;;;;;;;5124305;28;20074;-58
2022/04/28 13:47:19;;;;;;;6.38;4.00;;;;;;;;;;5123810;28;20054;-58
2022/04/28 13:49:45;;;;;;;18.48;5.00;;;;;;;;;;5122168;28;20336;-58
2022/04/28 13:52:10;;;;;;;7.47;3.60;;;;;;;;;;5122889;28;20061;-58
2022/04/28 13:54:36;;;;;;;2.95;2.05;;;;;;;;;;5123305;28;20099;-57
2022/04/28 13:57:01;;;;;;;5.95;3.97;;;;;;;;;;5120817;27;20507;-58
2022/04/28 13:59:27;;;;;;;9.57;2.17;;;;;;;;;;5124250;28;20058;-58
2022/04/28 14:01:52;;;;;;;3.20;2.60;;;;;;;;;;5123172;28;20039;-59
2022/04/28 14:04:19;;;;;;;4.00;2.47;;;;;;;;;;5122393;28;20510;-59
2022/04/28 14:06:45;;;;;;;10.05;3.42;;;;;;;;;;5123742;28;20069;-58
2022/04/28 14:09:10;;;;;;;8.05;2.80;;;;;;;;;;5123353;28;20502;-60
2022/04/28 14:11:35;;;;;;;6.00;3.47;;;;;;;;;;5123738;28;20099;-58
2022/04/28 14:14:01;;;;;;;5.45;2.00;;;;;;;;;;5123713;28;20865;-59
2022/04/28 14:16:27;;;;;;;3.78;2.58;;;;;;;;;;5122622;28;20414;-59
2022/04/28 14:18:52;;;;;;;3.08;2.50;;;;;;;;;;5124453;28;21005;-59
2022/04/28 14:21:18;;;;;;;4.20;3.15;;;;;;;;;;5121884;28;20039;-58
2022/04/28 14:23:44;;;;;;;7.78;2.97;;;;;;;;;;5122873;28;20047;-59
2022/04/28 14:26:11;;;;;;;9.52;4.22;;;;;;;;;;5122690;28;20031;-59
2022/04/28 14:28:36;;;;;;;6.95;3.60;;;;;;;;;;5103880;28;20055;-58
2022/04/28 14:31:01;;;;;;;9.20;2.75;;;;;;;;;;5123869;28;20039;-59
2022/04/28 14:33:27;;;;;;;9.60;2.72;;;;;;;;;;5123032;27;20067;-58
2022/04/28 14:35:52;;;;;;;3.22;1.88;;;;;;;;;;5121814;28;20039;-58
2022/04/28 14:38:19;;;;;;;7.72;4.78;;;;;;;;;;5122078;28;20218;-58
2022/04/28 14:40:45;;;;;;;9.45;3.65;;;;;;;;;;5120666;27;20117;-59
2022/04/28 14:43:10;;;;;;;7.15;2.03;;;;;;;;;;5122656;28;20118;-58
2022/04/28 14:45:36;;;;;;;4.32;2.88;;;;;;;;;;5120735;28;20051;-58
2022/04/28 14:48:02;;;;;;;13.23;3.22;;;;;;;;;;5122348;28;20668;-57
2022/04/28 14:53:11;;;;;;;1.77;1.35;;;;;;;;;;5121384;28;20057;-58
2022/04/28 14:55:36;;;;;;;13.80;4.50;;;;;;;;;;5123437;28;20047;-59
2022/04/28 14:58:06;;;;;;;8.50;2.50;;;;;;;;;;5122475;28;20043;-58
2022/04/28 15:00:32;;;;;;;7.90;2.20;;;;;;;;;;5104300;28;20047;-58
2022/04/28 15:02:57;;;;;;;7.55;2.83;;;;;;;;;;5123392;28;20525;-59
2022/04/28 15:05:23;;;;;;;2.28;1.52;;;;;;;;;;5123244;28;20057;-59
2022/04/28 15:07:48;;;;;;;4.95;2.47;;;;;;;;;;5122119;27;20051;-58
2022/04/28 15:10:14;;;;;;;11.70;3.35;;;;;;;;;;5122974;28;20039;-59
2022/04/28 15:12:39;;;;;;;8.70;5.05;;;;;;;;;;5121397;28;20447;-59
2022/04/28 15:15:07;;;;;;;8.48;3.55;;;;;;;;;;5122877;28;20054;-59
2022/04/28 15:17:33;;;;;;;6.63;3.00;;;;;;;;;;5122086;28;20111;-58